Time;durP1;ratioP1;P1;durP2;ratioP2;P2;SDS_P1;SDS_P2;PMS_P1;PMS_P2;Temp;Humidity;BMP_temperature;BMP_pressure;BME280_temperature;BME280_humidity;BME280_pressure;Samples;Min_cycle;Max_cycle;Signal;HPM_P1;HPM_P2
2022/01/06 00:01:03;;;;;;;12.35;1.83;;;;;;;;;;5080611;28;20046;-76
2022/01/06 00:03:31;;;;;;;10.95;1.65;;;;;;;;;;5078189;28;20052;-76
2022/01/06 00:05:57;;;;;;;16.70;2.22;;;;;;;;;;5055127;28;20044;-76
2022/01/06 00:08:23;;;;;;;13.57;1.52;;;;;;;;;;5082333;28;20152;-76
2022/01/06 00:10:51;;;;;;;13.65;1.95;;;;;;;;;;5063709;28;20051;-75
2022/01/06 00:13:24;;;;;;;10.93;1.77;;;;;;;;;;5050558;28;20040;-77
2022/01/06 00:23:47;;;;;;;18.25;2.30;;;;;;;;;;5085797;28;20692;-74
2022/01/06 00:26:13;;;;;;;16.02;2.00;;;;;;;;;;5068144;28;20082;-75
2022/01/06 00:28:40;;;;;;;13.20;2.00;;;;;;;;;;5065035;28;20036;-76
2022/01/06 00:31:06;;;;;;;18.70;1.90;;;;;;;;;;5084422;28;20056;-75
2022/01/06 00:33:33;;;;;;;19.33;2.75;;;;;;;;;;5067787;28;20071;-77
2022/01/06 00:35:59;;;;;;;18.55;2.45;;;;;;;;;;5068512;28;20142;-74
2022/01/06 00:38:25;;;;;;;18.73;2.13;;;;;;;;;;5064675;28;20487;-76
2022/01/06 00:40:51;;;;;;;14.18;2.25;;;;;;;;;;5080099;28;20480;-75
2022/01/06 00:43:17;;;;;;;19.92;3.47;;;;;;;;;;5064754;28;20040;-75
2022/01/06 00:45:43;;;;;;;29.75;3.20;;;;;;;;;;5085726;28;20046;-74
2022/01/06 00:48:10;;;;;;;16.92;2.20;;;;;;;;;;5086098;28;20113;-76
2022/01/06 00:50:36;;;;;;;36.35;4.95;;;;;;;;;;5085550;28;20044;-74
2022/01/06 00:53:04;;;;;;;19.90;3.28;;;;;;;;;;5053735;28;20040;-75
2022/01/06 00:55:39;;;;;;;17.17;2.65;;;;;;;;;;5085299;28;20056;-75
2022/01/06 00:58:06;;;;;;;24.90;3.92;;;;;;;;;;5084473;28;20490;-75
2022/01/06 01:00:40;;;;;;;17.55;3.28;;;;;;;;;;5069068;28;20120;-78
2022/01/06 01:03:07;;;;;;;20.33;3.50;;;;;;;;;;5096442;28;20130;-75
2022/01/06 01:05:33;;;;;;;25.73;3.30;;;;;;;;;;5082119;28;20040;-76
2022/01/06 01:07:59;;;;;;;23.13;3.40;;;;;;;;;;5066535;28;20047;-75
2022/01/06 01:10:25;;;;;;;21.75;3.85;;;;;;;;;;5053041;28;20047;-75
2022/01/06 01:12:51;;;;;;;19.35;2.10;;;;;;;;;;5066669;28;20044;-75
2022/01/06 01:15:20;;;;;;;23.95;3.13;;;;;;;;;;5068233;28;20040;-75
2022/01/06 01:17:53;;;;;;;23.38;3.42;;;;;;;;;;5066173;28;20116;-75
2022/01/06 01:20:19;;;;;;;17.00;2.45;;;;;;;;;;5086609;28;20505;-76
2022/01/06 01:22:46;;;;;;;21.20;3.25;;;;;;;;;;5051639;28;20143;-77
2022/01/06 01:25:13;;;;;;;19.52;2.50;;;;;;;;;;5071944;28;20035;-78
2022/01/06 01:27:42;;;;;;;20.77;3.15;;;;;;;;;;5089211;28;20494;-75
2022/01/06 01:30:11;;;;;;;23.25;3.85;;;;;;;;;;5088534;28;20058;-75
2022/01/06 01:32:38;;;;;;;25.33;4.15;;;;;;;;;;5089084;28;20098;-76
2022/01/06 01:35:07;;;;;;;20.30;3.28;;;;;;;;;;5087820;28;20052;-77
2022/01/06 01:37:34;;;;;;;29.10;4.40;;;;;;;;;;5068589;28;20067;-75
2022/01/06 01:40:00;;;;;;;27.85;4.53;;;;;;;;;;5100492;28;20261;-75
2022/01/06 01:42:27;;;;;;;30.52;3.80;;;;;;;;;;5086656;28;20040;-75
2022/01/06 01:44:53;;;;;;;20.67;4.88;;;;;;;;;;5072374;28;20059;-74
2022/01/06 01:47:30;;;;;;;18.70;3.50;;;;;;;;;;5088124;28;20050;-74
2022/01/06 01:50:10;;;;;;;17.77;3.97;;;;;;;;;;5086440;28;20046;-75
2022/01/06 01:52:36;;;;;;;21.83;2.72;;;;;;;;;;5073666;28;20133;-75
2022/01/06 01:55:02;;;;;;;18.90;2.33;;;;;;;;;;5087823;28;20061;-74
2022/01/06 01:57:29;;;;;;;23.00;2.83;;;;;;;;;;5088438;28;20048;-73
2022/01/06 01:59:55;;;;;;;20.98;2.88;;;;;;;;;;5073408;28;20572;-74
2022/01/06 02:02:21;;;;;;;18.65;2.70;;;;;;;;;;5070984;28;21654;-75
2022/01/06 02:04:49;;;;;;;21.48;3.70;;;;;;;;;;5071930;28;20494;-74
2022/01/06 02:07:15;;;;;;;25.75;2.83;;;;;;;;;;5068530;28;20090;-77
2022/01/06 02:09:42;;;;;;;19.58;3.88;;;;;;;;;;5084597;28;20044;-75
2022/01/06 02:12:09;;;;;;;20.60;3.50;;;;;;;;;;5052245;28;20440;-73
2022/01/06 02:14:35;;;;;;;20.02;3.20;;;;;;;;;;5070290;28;20388;-74
2022/01/06 02:17:01;;;;;;;16.67;2.72;;;;;;;;;;5081725;28;20044;-75
2022/01/06 02:19:27;;;;;;;17.30;2.85;;;;;;;;;;5056516;28;20077;-74
2022/01/06 02:21:53;;;;;;;25.67;3.67;;;;;;;;;;5071896;28;20039;-75
2022/01/06 02:24:19;;;;;;;31.40;4.70;;;;;;;;;;5093208;28;20046;-74
2022/01/06 02:26:45;;;;;;;19.02;2.97;;;;;;;;;;5070117;28;20071;-73
2022/01/06 02:29:11;;;;;;;17.73;3.10;;;;;;;;;;5067205;28;20067;-74
2022/01/06 02:31:46;;;;;;;25.45;3.10;;;;;;;;;;5067978;28;20487;-76
2022/01/06 02:34:12;;;;;;;16.05;2.90;;;;;;;;;;5088617;28;20132;-74
2022/01/06 02:36:39;;;;;;;13.32;2.42;;;;;;;;;;5087860;28;20074;-75
2022/01/06 02:39:05;;;;;;;19.30;3.35;;;;;;;;;;5087972;28;20558;-74
2022/01/06 02:41:32;;;;;;;15.75;2.30;;;;;;;;;;5087777;28;20141;-73
2022/01/06 02:43:58;;;;;;;17.42;2.53;;;;;;;;;;5069932;28;20077;-73
2022/01/06 02:46:24;;;;;;;30.33;2.33;;;;;;;;;;5068174;28;20039;-73
2022/01/06 02:48:50;;;;;;;18.38;2.35;;;;;;;;;;5070820;28;20391;-74
2022/01/06 02:51:16;;;;;;;17.88;2.78;;;;;;;;;;5070374;28;20063;-74
2022/01/06 02:53:42;;;;;;;12.52;2.72;;;;;;;;;;5088200;28;20485;-75
2022/01/06 02:56:08;;;;;;;20.75;2.97;;;;;;;;;;5068533;28;20052;-74
2022/01/06 02:58:34;;;;;;;18.80;3.15;;;;;;;;;;5083650;28;20075;-73
2022/01/06 03:01:00;;;;;;;18.55;3.05;;;;;;;;;;5085069;28;20044;-75
2022/01/06 03:03:26;;;;;;;15.55;2.05;;;;;;;;;;5070455;28;20461;-74
2022/01/06 03:05:52;;;;;;;18.90;3.13;;;;;;;;;;5066743;28;20039;-74
2022/01/06 03:08:22;;;;;;;22.20;2.80;;;;;;;;;;5067537;28;20573;-74
2022/01/06 03:10:50;;;;;;;18.25;2.65;;;;;;;;;;5110118;27;20392;-73
2022/01/06 03:13:16;;;;;;;16.02;3.15;;;;;;;;;;5074457;28;20032;-73
2022/01/06 03:15:42;;;;;;;15.35;2.22;;;;;;;;;;5061996;28;20054;-73
2022/01/06 03:18:08;;;;;;;16.05;3.22;;;;;;;;;;5083628;28;20101;-74
2022/01/06 03:20:34;;;;;;;21.05;2.30;;;;;;;;;;5084262;28;20048;-75
2022/01/06 03:23:00;;;;;;;14.00;1.98;;;;;;;;;;5069534;28;20521;-74
2022/01/06 03:25:26;;;;;;;17.75;2.30;;;;;;;;;;5087961;28;20073;-73
2022/01/06 03:27:52;;;;;;;14.57;2.13;;;;;;;;;;5069229;28;20071;-73
2022/01/06 03:30:19;;;;;;;19.60;3.40;;;;;;;;;;5085307;28;20051;-73
2022/01/06 03:32:46;;;;;;;14.20;2.28;;;;;;;;;;5093316;28;20047;-74
2022/01/06 03:35:13;;;;;;;13.05;1.70;;;;;;;;;;5070217;28;20044;-74
2022/01/06 03:37:40;;;;;;;16.50;2.15;;;;;;;;;;5086726;28;20044;-74
2022/01/06 03:40:07;;;;;;;16.48;2.63;;;;;;;;;;5067944;28;20039;-74
2022/01/06 03:42:36;;;;;;;22.10;2.08;;;;;;;;;;5084129;28;20445;-73
2022/01/06 03:45:03;;;;;;;16.67;2.10;;;;;;;;;;5084352;28;20048;-74
2022/01/06 03:47:30;;;;;;;15.13;2.80;;;;;;;;;;5085866;28;20051;-74
2022/01/06 03:49:56;;;;;;;19.15;1.70;;;;;;;;;;5052041;28;20037;-73
2022/01/06 03:52:22;;;;;;;13.35;2.20;;;;;;;;;;5055429;28;20044;-73
2022/01/06 03:54:48;;;;;;;19.85;2.13;;;;;;;;;;5069387;28;20067;-74
2022/01/06 03:57:14;;;;;;;12.05;1.98;;;;;;;;;;5053208;28;20491;-74
2022/01/06 03:59:40;;;;;;;16.77;2.58;;;;;;;;;;5096579;27;20044;-74
2022/01/06 04:02:06;;;;;;;18.17;2.22;;;;;;;;;;5082475;28;20075;-73
2022/01/06 04:04:32;;;;;;;18.08;2.35;;;;;;;;;;5069241;28;20040;-74
2022/01/06 04:06:58;;;;;;;16.60;2.63;;;;;;;;;;5071194;28;20535;-73
2022/01/06 04:09:24;;;;;;;16.55;1.88;;;;;;;;;;5084390;28;20476;-74
2022/01/06 04:11:50;;;;;;;10.85;1.80;;;;;;;;;;5067650;28;20453;-74
2022/01/06 04:14:16;;;;;;;13.18;2.10;;;;;;;;;;5099473;27;20036;-75
2022/01/06 04:16:42;;;;;;;23.08;2.28;;;;;;;;;;5087157;28;20040;-74
2022/01/06 04:19:09;;;;;;;15.90;2.33;;;;;;;;;;5070250;28;20055;-74
2022/01/06 04:21:35;;;;;;;19.23;2.75;;;;;;;;;;5069466;28;20044;-74
2022/01/06 04:24:01;;;;;;;12.80;1.95;;;;;;;;;;5083472;28;20044;-74
2022/01/06 04:26:28;;;;;;;18.35;2.90;;;;;;;;;;5064578;28;20179;-74
2022/01/06 04:28:54;;;;;;;14.45;2.20;;;;;;;;;;5080996;28;20066;-74
2022/01/06 04:31:20;;;;;;;22.77;2.72;;;;;;;;;;5069178;28;20065;-73
2022/01/06 04:33:46;;;;;;;17.10;2.25;;;;;;;;;;5083201;28;20365;-74
2022/01/06 04:36:12;;;;;;;13.88;1.95;;;;;;;;;;5070303;28;20043;-74
2022/01/06 04:38:39;;;;;;;18.20;2.22;;;;;;;;;;5066010;28;20059;-74
2022/01/06 04:41:05;;;;;;;15.50;2.78;;;;;;;;;;5064690;28;20071;-75
2022/01/06 04:43:31;;;;;;;17.95;4.05;;;;;;;;;;5085611;28;20048;-74
2022/01/06 04:45:59;;;;;;;15.65;2.38;;;;;;;;;;5067290;28;20094;-75
2022/01/06 04:48:25;;;;;;;13.07;2.35;;;;;;;;;;5087761;28;20138;-75
2022/01/06 04:50:51;;;;;;;18.08;2.15;;;;;;;;;;5085107;28;20044;-74
2022/01/06 04:53:17;;;;;;;22.40;2.80;;;;;;;;;;5068174;28;20048;-74
2022/01/06 04:55:43;;;;;;;21.02;3.33;;;;;;;;;;5067307;28;20047;-74
2022/01/06 04:58:09;;;;;;;13.20;1.98;;;;;;;;;;5087468;28;20104;-75
2022/01/06 05:00:35;;;;;;;10.68;2.72;;;;;;;;;;5116474;27;20055;-74
2022/01/06 05:03:01;;;;;;;16.65;3.47;;;;;;;;;;5069757;28;20040;-77
2022/01/06 05:05:27;;;;;;;23.10;3.13;;;;;;;;;;5069044;28;20044;-74
2022/01/06 05:07:53;;;;;;;20.88;2.85;;;;;;;;;;5084446;28;20141;-74
2022/01/06 05:10:19;;;;;;;17.75;2.72;;;;;;;;;;5085367;28;20043;-75
2022/01/06 05:12:46;;;;;;;25.63;4.07;;;;;;;;;;5066951;28;20044;-74
2022/01/06 05:15:12;;;;;;;25.95;3.00;;;;;;;;;;5067376;28;20048;-74
2022/01/06 05:17:39;;;;;;;21.27;2.83;;;;;;;;;;5067170;28;20529;-74
2022/01/06 05:20:05;;;;;;;20.42;2.75;;;;;;;;;;5067487;28;20133;-75
2022/01/06 05:22:32;;;;;;;12.00;2.42;;;;;;;;;;5054633;28;20051;-75
2022/01/06 05:24:58;;;;;;;19.27;2.55;;;;;;;;;;5086889;28;20052;-74
2022/01/06 05:27:24;;;;;;;19.23;2.65;;;;;;;;;;5083363;28;20044;-73
2022/01/06 05:29:50;;;;;;;16.40;2.55;;;;;;;;;;5083968;28;20082;-75
2022/01/06 05:32:16;;;;;;;19.50;2.97;;;;;;;;;;5087530;28;20047;-74
2022/01/06 05:34:42;;;;;;;22.58;4.22;;;;;;;;;;5052859;28;20429;-74
2022/01/06 05:37:09;;;;;;;19.67;3.38;;;;;;;;;;5067267;28;20403;-74
2022/01/06 05:39:35;;;;;;;19.88;3.90;;;;;;;;;;5069822;28;20658;-74
2022/01/06 05:42:01;;;;;;;21.85;3.92;;;;;;;;;;5083776;28;20384;-75
2022/01/06 05:44:28;;;;;;;19.88;3.38;;;;;;;;;;5084283;28;20083;-74
2022/01/06 05:46:54;;;;;;;21.77;2.83;;;;;;;;;;5067573;28;20040;-74
2022/01/06 05:49:20;;;;;;;19.25;2.72;;;;;;;;;;5066431;28;20522;-75
2022/01/06 05:51:46;;;;;;;10.23;1.98;;;;;;;;;;5087083;28;20372;-74
2022/01/06 05:54:12;;;;;;;17.17;2.90;;;;;;;;;;5051834;28;20131;-74
2022/01/06 05:56:38;;;;;;;25.77;3.15;;;;;;;;;;5086609;28;20055;-74
2022/01/06 05:59:04;;;;;;;16.95;3.22;;;;;;;;;;5068317;28;20139;-76
2022/01/06 06:01:30;;;;;;;31.98;5.82;;;;;;;;;;5084575;28;20052;-76
2022/01/06 06:03:56;;;;;;;24.05;3.05;;;;;;;;;;5065939;28;20044;-74
2022/01/06 06:06:22;;;;;;;21.27;3.08;;;;;;;;;;5068551;28;20044;-73
2022/01/06 06:08:48;;;;;;;26.50;3.15;;;;;;;;;;5070269;28;20134;-75
2022/01/06 06:11:14;;;;;;;14.45;2.28;;;;;;;;;;5086895;28;20040;-74
2022/01/06 06:13:40;;;;;;;24.27;2.78;;;;;;;;;;5086813;28;20075;-74
2022/01/06 06:16:06;;;;;;;16.25;2.50;;;;;;;;;;5084226;28;20052;-76
2022/01/06 06:18:32;;;;;;;16.77;2.42;;;;;;;;;;5090510;28;20048;-76
2022/01/06 06:20:58;;;;;;;24.85;2.80;;;;;;;;;;5072489;28;20705;-75
2022/01/06 06:23:24;;;;;;;14.77;2.85;;;;;;;;;;5087350;28;20044;-75
2022/01/06 06:25:50;;;;;;;23.00;2.95;;;;;;;;;;5088915;28;20518;-75
2022/01/06 06:28:16;;;;;;;19.77;2.47;;;;;;;;;;5071183;28;20044;-74
2022/01/06 06:30:42;;;;;;;21.00;3.05;;;;;;;;;;5089536;28;20040;-75
2022/01/06 06:33:09;;;;;;;23.48;3.25;;;;;;;;;;5089994;28;20453;-75
2022/01/06 06:35:35;;;;;;;28.30;3.08;;;;;;;;;;5073108;28;20403;-76
2022/01/06 06:38:01;;;;;;;22.30;4.65;;;;;;;;;;5090192;28;20051;-74
2022/01/06 06:40:27;;;;;;;26.30;3.65;;;;;;;;;;5088914;28;20479;-74
2022/01/06 06:42:53;;;;;;;29.70;3.70;;;;;;;;;;5072739;28;20055;-75
2022/01/06 06:45:20;;;;;;;18.80;3.40;;;;;;;;;;5072954;28;20047;-74
2022/01/06 06:47:46;;;;;;;24.25;3.17;;;;;;;;;;5073094;28;20055;-74
2022/01/06 06:50:15;;;;;;;22.60;4.13;;;;;;;;;;5070846;28;20037;-75
2022/01/06 06:52:42;;;;;;;16.80;2.85;;;;;;;;;;5087312;28;20044;-74
2022/01/06 06:55:08;;;;;;;21.55;3.50;;;;;;;;;;5072066;28;20052;-75
2022/01/06 06:57:34;;;;;;;25.63;3.60;;;;;;;;;;5087024;28;20063;-74
2022/01/06 07:00:04;;;;;;;15.50;2.63;;;;;;;;;;5072925;28;20063;-78
2022/01/06 07:02:30;;;;;;;17.48;2.88;;;;;;;;;;5081854;28;20037;-75
2022/01/06 07:04:56;;;;;;;27.42;4.13;;;;;;;;;;5089402;28;20072;-74
2022/01/06 07:07:22;;;;;;;18.83;4.15;;;;;;;;;;5079635;28;20105;-75
2022/01/06 07:09:48;;;;;;;19.88;3.30;;;;;;;;;;5086514;28;20040;-74
2022/01/06 07:12:14;;;;;;;18.23;3.28;;;;;;;;;;5088689;28;20051;-73
2022/01/06 07:14:41;;;;;;;19.88;3.03;;;;;;;;;;5087805;28;20113;-73
2022/01/06 07:17:07;;;;;;;23.95;4.75;;;;;;;;;;5069138;28;20048;-74
2022/01/06 07:19:33;;;;;;;27.38;3.22;;;;;;;;;;5085899;28;20115;-74
2022/01/06 07:21:59;;;;;;;27.65;4.55;;;;;;;;;;5088752;28;20134;-75
2022/01/06 07:24:25;;;;;;;18.95;3.72;;;;;;;;;;5088396;28;20074;-75
2022/01/06 07:26:51;;;;;;;25.52;4.05;;;;;;;;;;5072606;28;20122;-73
2022/01/06 07:29:17;;;;;;;26.80;3.78;;;;;;;;;;5070072;28;20109;-73
2022/01/06 07:31:43;;;;;;;21.95;3.65;;;;;;;;;;5087161;28;20040;-74
2022/01/06 07:34:09;;;;;;;28.33;4.78;;;;;;;;;;5071277;28;20067;-76
2022/01/06 07:36:35;;;;;;;29.30;3.97;;;;;;;;;;5068818;28;20087;-76
2022/01/06 07:39:01;;;;;;;24.35;4.30;;;;;;;;;;5088038;28;20032;-74
2022/01/06 07:41:27;;;;;;;26.60;3.67;;;;;;;;;;5070976;28;20048;-74
2022/01/06 07:43:53;;;;;;;21.55;4.05;;;;;;;;;;5071280;28;20106;-74
2022/01/06 07:46:19;;;;;;;23.02;4.80;;;;;;;;;;5071019;28;20096;-74
2022/01/06 07:49:03;;;;;;;27.20;3.90;;;;;;;;;;5087983;28;20134;-74
2022/01/06 07:51:30;;;;;;;28.70;3.60;;;;;;;;;;5087582;28;20048;-75
2022/01/06 07:53:58;;;;;;;37.08;5.30;;;;;;;;;;5088316;28;20040;-74
2022/01/06 07:56:24;;;;;;;22.08;3.30;;;;;;;;;;5084699;28;20186;-75
2022/01/06 07:58:50;;;;;;;19.25;3.10;;;;;;;;;;5088384;28;20151;-74
2022/01/06 08:01:17;;;;;;;24.15;3.05;;;;;;;;;;5052347;28;20040;-76
2022/01/06 08:03:43;;;;;;;28.45;3.65;;;;;;;;;;5070408;28;20560;-74
2022/01/06 08:06:10;;;;;;;29.05;4.32;;;;;;;;;;5088507;28;20047;-75
2022/01/06 08:08:36;;;;;;;26.33;4.32;;;;;;;;;;5070764;28;20044;-74
2022/01/06 08:11:02;;;;;;;26.67;4.47;;;;;;;;;;5072175;28;20044;-74
2022/01/06 08:13:29;;;;;;;17.60;3.42;;;;;;;;;;5070090;28;20036;-74
2022/01/06 08:15:55;;;;;;;24.13;4.65;;;;;;;;;;5088128;28;20040;-74
2022/01/06 08:18:21;;;;;;;22.42;3.63;;;;;;;;;;5070533;28;20425;-74
2022/01/06 08:20:47;;;;;;;22.80;4.03;;;;;;;;;;5070496;28;20101;-76
2022/01/06 08:23:13;;;;;;;26.90;3.30;;;;;;;;;;5088114;28;20094;-77
2022/01/06 08:25:39;;;;;;;21.17;3.58;;;;;;;;;;5054687;28;20040;-76
2022/01/06 08:28:07;;;;;;;24.67;4.15;;;;;;;;;;5055764;28;20399;-75
2022/01/06 08:30:33;;;;;;;30.50;5.28;;;;;;;;;;5065141;28;20518;-76
2022/01/06 08:33:00;;;;;;;24.75;3.70;;;;;;;;;;5052737;28;20521;-75
2022/01/06 08:35:26;;;;;;;19.20;3.65;;;;;;;;;;5067275;28;20036;-75
2022/01/06 08:37:53;;;;;;;21.83;3.13;;;;;;;;;;5084751;28;20054;-76
2022/01/06 08:40:19;;;;;;;30.23;4.13;;;;;;;;;;5086233;28;20127;-76
2022/01/06 08:42:48;;;;;;;23.25;4.30;;;;;;;;;;5087379;28;20036;-78
2022/01/06 08:45:19;;;;;;;19.88;4.47;;;;;;;;;;5086145;28;20075;-77
2022/01/06 08:47:46;;;;;;;23.75;3.40;;;;;;;;;;5071281;28;20048;-76
2022/01/06 08:50:12;;;;;;;20.27;4.10;;;;;;;;;;5069803;28;20059;-77
2022/01/06 08:52:39;;;;;;;17.30;3.17;;;;;;;;;;5069268;28;20486;-76
2022/01/06 08:55:07;;;;;;;29.27;4.47;;;;;;;;;;5066524;28;20459;-75
2022/01/06 08:57:33;;;;;;;27.50;4.50;;;;;;;;;;5078353;28;20052;-75
2022/01/06 08:59:59;;;;;;;28.33;5.05;;;;;;;;;;5092708;28;20471;-75
2022/01/06 09:02:26;;;;;;;24.30;4.60;;;;;;;;;;5080970;28;20421;-76
2022/01/06 09:04:52;;;;;;;27.98;4.40;;;;;;;;;;5079345;28;20048;-76
2022/01/06 09:07:18;;;;;;;21.63;3.65;;;;;;;;;;5065344;28;20091;-76
2022/01/06 09:09:45;;;;;;;33.05;4.60;;;;;;;;;;5063320;28;20056;-77
2022/01/06 09:12:18;;;;;;;22.17;4.50;;;;;;;;;;5066910;28;20048;-77
2022/01/06 09:14:47;;;;;;;30.30;5.10;;;;;;;;;;5104522;28;20413;-74
2022/01/06 09:17:16;;;;;;;20.38;6.25;;;;;;;;;;5081098;28;20066;-74
2022/01/06 09:19:42;;;;;;;23.75;5.05;;;;;;;;;;5080962;28;20234;-73
2022/01/06 09:22:08;;;;;;;20.23;3.63;;;;;;;;;;5050397;28;20043;-74
2022/01/06 09:24:35;;;;;;;30.80;5.25;;;;;;;;;;5066907;28;20578;-74
2022/01/06 09:27:01;;;;;;;25.73;4.68;;;;;;;;;;5085301;28;20498;-74
2022/01/06 09:29:28;;;;;;;24.35;4.75;;;;;;;;;;5086941;28;20048;-73
2022/01/06 09:31:56;;;;;;;29.70;6.22;;;;;;;;;;5087469;28;20036;-73
2022/01/06 09:34:24;;;;;;;25.08;5.68;;;;;;;;;;5084028;28;20462;-73
2022/01/06 09:36:52;;;;;;;25.10;4.20;;;;;;;;;;5066537;28;20554;-73
2022/01/06 09:39:20;;;;;;;27.35;4.72;;;;;;;;;;5084258;28;20140;-73
2022/01/06 09:41:48;;;;;;;26.35;4.18;;;;;;;;;;5066964;28;20055;-73
2022/01/06 09:44:15;;;;;;;18.63;3.72;;;;;;;;;;5071514;28;20035;-73
2022/01/06 09:46:43;;;;;;;17.50;3.92;;;;;;;;;;5088166;28;20044;-73
2022/01/06 09:49:09;;;;;;;22.80;4.03;;;;;;;;;;5089537;28;20456;-74
2022/01/06 09:51:35;;;;;;;22.10;3.53;;;;;;;;;;5117542;27;20040;-74
2022/01/06 09:54:02;;;;;;;23.83;4.75;;;;;;;;;;5069212;28;20073;-74
2022/01/06 09:56:29;;;;;;;;;;;;;;;;;;5086992;28;20411;-74
2022/01/06 09:58:57;;;;;;;;;;;;;;;;;;5086430;28;20316;-74
2022/01/06 10:01:24;;;;;;;;;;;;;;;;;;5083098;28;19927;-75
2022/01/06 10:03:52;;;;;;;26.45;4.25;;;;;;;;;;5082842;28;19920;-76
2022/01/06 10:06:25;;;;;;;20.05;4.55;;;;;;;;;;5084420;28;20398;-74
2022/01/06 10:08:55;;;;;;;22.88;4.28;;;;;;;;;;5082914;28;20054;-74
2022/01/06 10:11:25;;;;;;;21.15;4.68;;;;;;;;;;5092287;28;20039;-74
2022/01/06 10:14:04;;;;;;;18.60;3.95;;;;;;;;;;5087703;28;20090;-73
2022/01/06 10:16:31;;;;;;;19.80;3.92;;;;;;;;;;5089467;28;20467;-73
2022/01/06 10:18:57;;;;;;;20.30;4.18;;;;;;;;;;5073774;28;20437;-73
2022/01/06 10:21:24;;;;;;;25.05;3.72;;;;;;;;;;5090506;28;20036;-74
2022/01/06 10:24:07;;;;;;;21.58;3.90;;;;;;;;;;5069414;28;20081;-74
2022/01/06 10:26:33;;;;;;;20.98;3.50;;;;;;;;;;5086778;28;20061;-73
2022/01/06 10:29:00;;;;;;;21.80;3.67;;;;;;;;;;5070845;28;20632;-74
2022/01/06 10:31:27;;;;;;;25.30;3.65;;;;;;;;;;5115250;27;20076;-73
2022/01/06 10:33:54;;;;;;;19.50;3.13;;;;;;;;;;5073021;28;20044;-74
2022/01/06 10:36:26;;;;;;;17.52;3.33;;;;;;;;;;5057051;28;20097;-73
2022/01/06 10:38:54;;;;;;;18.05;3.67;;;;;;;;;;5087835;28;20071;-72
2022/01/06 10:41:20;;;;;;;21.38;3.75;;;;;;;;;;5071420;28;20044;-74
2022/01/06 10:43:53;;;;;;;26.15;3.67;;;;;;;;;;5072464;28;20036;-74
2022/01/06 10:46:30;;;;;;;18.45;3.03;;;;;;;;;;5113722;27;20052;-74
2022/01/06 10:48:57;;;;;;;24.50;3.75;;;;;;;;;;5113759;27;20063;-74
2022/01/06 10:51:38;;;;;;;24.88;3.22;;;;;;;;;;5072333;28;20052;-74
2022/01/06 10:54:05;;;;;;;18.38;3.15;;;;;;;;;;5063294;28;20128;-75
2022/01/06 10:56:31;;;;;;;28.77;4.72;;;;;;;;;;5114345;27;20044;-75
2022/01/06 10:58:58;;;;;;;28.15;4.30;;;;;;;;;;5098487;28;20105;-73
2022/01/06 11:01:25;;;;;;;25.17;4.30;;;;;;;;;;5083950;28;20036;-76
2022/01/06 11:03:51;;;;;;;23.95;4.20;;;;;;;;;;5065289;28;20139;-74
2022/01/06 11:06:17;;;;;;;25.42;4.25;;;;;;;;;;5087684;28;20048;-73
2022/01/06 11:08:43;;;;;;;31.17;4.60;;;;;;;;;;5071071;28;20051;-78
2022/01/06 11:13:36;;;;;;;27.27;5.82;;;;;;;;;;5088209;28;20123;-76
2022/01/06 11:16:03;;;;;;;24.95;4.22;;;;;;;;;;5087568;28;20130;-76
2022/01/06 11:18:29;;;;;;;22.42;4.40;;;;;;;;;;5071523;28;20075;-81
2022/01/06 11:21:05;;;;;;;25.23;4.63;;;;;;;;;;5070625;28;20158;-77
2022/01/06 11:23:32;;;;;;;23.08;4.00;;;;;;;;;;5067153;28;20047;-79
2022/01/06 11:26:06;;;;;;;32.17;5.13;;;;;;;;;;5085837;28;20044;-75
2022/01/06 11:28:32;;;;;;;28.50;5.32;;;;;;;;;;5089603;28;20044;-78
2022/01/06 11:31:12;;;;;;;26.98;4.05;;;;;;;;;;5090320;28;20083;-74
2022/01/06 11:33:41;;;;;;;17.67;4.25;;;;;;;;;;5070137;28;20071;-76
2022/01/06 11:36:18;;;;;;;19.35;3.72;;;;;;;;;;5080665;28;20040;-75
2022/01/06 11:38:47;;;;;;;21.83;3.28;;;;;;;;;;5068538;28;20051;-77
2022/01/06 11:41:13;;;;;;;18.80;3.20;;;;;;;;;;5086631;28;20130;-76
2022/01/06 11:43:40;;;;;;;18.85;3.60;;;;;;;;;;5070336;28;20112;-77
2022/01/06 11:46:07;;;;;;;22.88;4.03;;;;;;;;;;5071212;28;20542;-76
2022/01/06 11:48:33;;;;;;;21.33;4.47;;;;;;;;;;5071726;28;20044;-76
2022/01/06 11:50:59;;;;;;;20.33;3.47;;;;;;;;;;5070280;28;20044;-78
2022/01/06 11:53:33;;;;;;;17.20;3.67;;;;;;;;;;5086531;28;20044;-79
2022/01/06 11:56:00;;;;;;;20.75;3.45;;;;;;;;;;5069380;28;20138;-76
2022/01/06 11:58:27;;;;;;;21.85;4.40;;;;;;;;;;5083356;28;20049;-76
2022/01/06 12:00:56;;;;;;;23.10;3.75;;;;;;;;;;5064524;28;20052;-77
2022/01/06 12:03:33;;;;;;;16.48;3.80;;;;;;;;;;5066630;28;20056;-78
2022/01/06 12:05:59;;;;;;;24.77;2.80;;;;;;;;;;5114655;27;20394;-79
2022/01/06 12:08:40;;;;;;;21.55;3.03;;;;;;;;;;5081110;28;20117;-81
2022/01/06 12:11:08;;;;;;;18.75;3.20;;;;;;;;;;5069937;28;20044;-78
2022/01/06 12:13:43;;;;;;;21.52;3.15;;;;;;;;;;5086602;28;20040;-80
2022/01/06 12:16:10;;;;;;;24.27;3.47;;;;;;;;;;5069861;28;20131;-78
2022/01/06 12:18:36;;;;;;;19.02;4.07;;;;;;;;;;5087221;28;20051;-80
2022/01/06 12:21:03;;;;;;;19.58;3.25;;;;;;;;;;5055739;28;20372;-77
2022/01/06 12:23:29;;;;;;;28.25;3.88;;;;;;;;;;5071025;28;20047;-77
2022/01/06 12:26:00;;;;;;;15.48;2.95;;;;;;;;;;5072768;28;20040;-79
2022/01/06 12:28:26;;;;;;;17.10;3.55;;;;;;;;;;5086650;28;20127;-79
2022/01/06 12:31:04;;;;;;;18.98;2.72;;;;;;;;;;5069456;28;20040;-79
2022/01/06 12:33:31;;;;;;;20.88;3.42;;;;;;;;;;5084649;28;20044;-79
2022/01/06 12:35:58;;;;;;;18.80;3.65;;;;;;;;;;5105333;28;20071;-79
2022/01/06 12:38:37;;;;;;;19.52;3.17;;;;;;;;;;5087173;28;20048;-78
2022/01/06 12:41:03;;;;;;;13.43;2.40;;;;;;;;;;5071441;28;20051;-79
2022/01/06 12:43:30;;;;;;;17.50;2.90;;;;;;;;;;5068912;28;20523;-77
2022/01/06 12:46:05;;;;;;;11.88;2.00;;;;;;;;;;5069520;28;21944;-80
2022/01/06 12:48:33;;;;;;;12.70;1.92;;;;;;;;;;5089069;28;20444;-78
2022/01/06 12:50:59;;;;;;;11.52;2.67;;;;;;;;;;5070308;28;20502;-77
2022/01/06 12:53:26;;;;;;;16.00;2.28;;;;;;;;;;5055160;28;20130;-76
2022/01/06 12:55:53;;;;;;;14.00;2.42;;;;;;;;;;5069975;28;20060;-77
2022/01/06 12:58:25;;;;;;;10.15;2.10;;;;;;;;;;5054587;28;20055;-78
2022/01/06 13:00:52;;;;;;;14.27;2.20;;;;;;;;;;5069297;28;20052;-77
2022/01/06 13:03:32;;;;;;;15.10;2.25;;;;;;;;;;5088431;28;20048;-77
2022/01/06 13:05:59;;;;;;;27.25;3.05;;;;;;;;;;5103585;28;20082;-80
2022/01/06 13:08:26;;;;;;;11.85;1.80;;;;;;;;;;5070350;28;20548;-77
2022/01/06 13:11:02;;;;;;;18.63;2.40;;;;;;;;;;5052686;28;20403;-84
2022/01/06 13:13:28;;;;;;;18.25;2.53;;;;;;;;;;5085059;28;20075;-78
2022/01/06 13:15:54;;;;;;;20.92;2.63;;;;;;;;;;5054483;28;20625;-79
2022/01/06 13:18:27;;;;;;;12.52;2.10;;;;;;;;;;5068736;28;20036;-80
2022/01/06 13:20:57;;;;;;;14.02;2.75;;;;;;;;;;5070018;28;20040;-83
2022/01/06 13:26:07;;;;;;;13.27;2.20;;;;;;;;;;5088086;28;20044;-80
2022/01/06 13:28:33;;;;;;;23.13;3.42;;;;;;;;;;5085864;28;20036;-81
2022/01/06 13:31:00;;;;;;;15.40;2.65;;;;;;;;;;5070806;28;20472;-83
2022/01/06 13:33:33;;;;;;;22.08;2.78;;;;;;;;;;5071604;28;20044;-83
2022/01/06 13:36:03;;;;;;;20.88;3.33;;;;;;;;;;5087519;28;20483;-83
2022/01/06 13:38:35;;;;;;;13.63;2.67;;;;;;;;;;5071320;28;20071;-85
2022/01/06 13:41:04;;;;;;;17.58;2.22;;;;;;;;;;5069289;28;20075;-85
2022/01/06 13:43:31;;;;;;;20.92;1.92;;;;;;;;;;5070574;28;20063;-84
2022/01/06 13:46:09;;;;;;;13.07;2.53;;;;;;;;;;5054484;28;20060;-84
2022/01/06 13:48:41;;;;;;;12.95;1.88;;;;;;;;;;5069200;28;20139;-84
2022/01/06 13:51:12;;;;;;;13.35;1.65;;;;;;;;;;5068393;28;20131;-84
2022/01/06 13:53:46;;;;;;;17.00;1.83;;;;;;;;;;5069613;28;20036;-84
2022/01/06 13:56:13;;;;;;;12.55;2.10;;;;;;;;;;5069629;28;20044;-84
2022/01/06 13:58:59;;;;;;;14.07;1.92;;;;;;;;;;5089801;28;20044;-85
2022/01/06 14:01:26;;;;;;;13.80;1.98;;;;;;;;;;5090004;28;20053;-85
2022/01/06 14:03:52;;;;;;;11.50;2.35;;;;;;;;;;5087294;28;20052;-85
2022/01/06 14:06:19;;;;;;;12.57;2.05;;;;;;;;;;5072097;28;20055;-84
2022/01/06 14:08:45;;;;;;;19.00;2.10;;;;;;;;;;5071811;28;20051;-90
2022/01/06 14:11:13;;;;;;;15.00;2.20;;;;;;;;;;5086731;28;20142;-84
2022/01/06 14:13:40;;;;;;;9.35;2.17;;;;;;;;;;5072903;28;20058;-88
2022/01/06 14:16:06;;;;;;;15.38;1.58;;;;;;;;;;5068285;28;20062;-84
2022/01/06 14:18:33;;;;;;;14.52;2.30;;;;;;;;;;5069610;28;20390;-86
2022/01/06 14:20:59;;;;;;;10.13;1.77;;;;;;;;;;5085749;28;20036;-83
2022/01/06 14:23:28;;;;;;;12.60;2.22;;;;;;;;;;5087721;28;20825;-84
2022/01/06 14:25:54;;;;;;;12.23;2.08;;;;;;;;;;5069463;28;20048;-84
2022/01/06 14:28:20;;;;;;;16.33;2.45;;;;;;;;;;5070017;28;20097;-81
2022/01/06 14:30:47;;;;;;;19.40;2.47;;;;;;;;;;5072371;28;20567;-83
2022/01/06 14:33:13;;;;;;;18.30;2.83;;;;;;;;;;5071513;28;20036;-84
2022/01/06 14:35:39;;;;;;;19.45;2.97;;;;;;;;;;5089046;28;20044;-80
2022/01/06 14:38:05;;;;;;;19.00;3.20;;;;;;;;;;5073688;28;20094;-87
2022/01/06 14:40:32;;;;;;;16.83;2.60;;;;;;;;;;5089031;28;20070;-88
2022/01/06 14:42:59;;;;;;;24.23;3.80;;;;;;;;;;5074852;28;20039;-89
2022/01/06 14:45:27;;;;;;;11.73;2.60;;;;;;;;;;5076113;28;20039;-90